createdAt,value
2023-02-18T00:00:08.778Z,1.40
2023-02-18T00:02:35.876Z,0.70
2023-02-18T00:05:02.783Z,1.40
2023-02-18T00:07:33.518Z,0.87
2023-02-18T00:10:00.517Z,0.80
2023-02-18T00:12:27.359Z,0.40
2023-02-18T00:14:54.270Z,0.50
2023-02-18T00:17:21.046Z,0.60
2023-02-18T00:19:47.841Z,0.40
2023-02-18T00:22:14.649Z,0.47
2023-02-18T00:24:41.621Z,0.20
2023-02-18T00:27:08.459Z,0.90
2023-02-18T00:29:35.716Z,0.50
2023-02-18T00:32:02.634Z,0.93
2023-02-18T00:34:29.542Z,0.63
2023-02-18T00:36:56.357Z,0.60
2023-02-18T00:39:23.255Z,0.70
2023-02-18T00:41:50.131Z,0.97
2023-02-18T00:44:16.989Z,0.70
2023-02-18T00:46:44.006Z,0.30
2023-02-18T00:49:10.953Z,0.63
2023-02-18T00:51:37.955Z,0.77
2023-02-18T00:54:04.970Z,0.30
2023-02-18T00:56:31.884Z,0.40
2023-02-18T00:58:58.853Z,0.87
2023-02-18T01:01:26.343Z,0.80
2023-02-18T01:03:53.210Z,0.40
2023-02-18T01:06:22.246Z,0.53
2023-02-18T01:08:49.783Z,0.50
2023-02-18T01:11:16.831Z,0.50
2023-02-18T01:13:43.908Z,0.63
2023-02-18T01:16:11.521Z,0.33
2023-02-18T01:18:38.805Z,0.27
2023-02-18T01:21:08.642Z,0.53
2023-02-18T01:23:41.128Z,0.20
2023-02-18T01:26:10.035Z,0.30
2023-02-18T01:28:37.258Z,0.33
2023-02-18T01:31:09.339Z,0.57
2023-02-18T01:33:37.049Z,0.40
2023-02-18T01:36:04.806Z,0.80
2023-02-18T01:38:31.631Z,0.40
2023-02-18T01:40:58.531Z,0.20
2023-02-18T01:43:25.383Z,0.30
2023-02-18T01:46:11.351Z,0.60
2023-02-18T01:48:39.649Z,0.40
2023-02-18T01:51:11.597Z,0.73
2023-02-18T01:53:48.994Z,0.20
2023-02-18T01:56:29.467Z,0.37
2023-02-18T01:58:59.658Z,0.20
2023-02-18T02:01:27.248Z,0.30
2023-02-18T02:03:54.661Z,0.30
2023-02-18T02:06:23.846Z,0.33
2023-02-18T02:08:54.315Z,0.47
2023-02-18T02:11:27.334Z,0.30
2023-02-18T02:14:17.507Z,0.40
2023-02-18T02:17:02.708Z,0.23
2023-02-18T02:20:00.333Z,0.20
2023-02-18T02:22:51.347Z,0.70
2023-02-18T02:25:35.865Z,0.30
2023-02-18T02:28:48.810Z,0.60
2023-02-18T02:31:21.375Z,0.33
2023-02-18T02:34:06.062Z,0.20
2023-02-18T02:37:04.955Z,0.20
2023-02-18T02:39:54.617Z,0.20
2023-02-18T02:42:36.473Z,0.40
2023-02-18T02:45:03.258Z,0.73
2023-02-18T02:47:49.290Z,0.30
2023-02-18T02:50:43.448Z,0.30
2023-02-18T02:53:26.216Z,0.20
2023-02-18T02:55:55.050Z,0.40
2023-02-18T02:58:22.582Z,0.20
2023-02-18T03:01:07.936Z,0.20
2023-02-18T03:03:44.673Z,0.37
2023-02-18T03:06:29.998Z,0.30
2023-02-18T03:09:17.878Z,0.20
2023-02-18T03:11:54.242Z,0.37
2023-02-18T03:14:46.695Z,0.20
2023-02-18T03:17:25.301Z,0.60
2023-02-18T03:20:19.189Z,0.30
2023-02-18T03:22:49.415Z,0.47
2023-02-18T03:25:18.406Z,0.20
2023-02-18T03:27:52.651Z,0.40
2023-02-18T03:30:30.415Z,0.20
2023-02-18T03:33:03.789Z,0.20
2023-02-18T03:35:31.061Z,0.30
2023-02-18T03:38:12.377Z,0.30
2023-02-18T03:40:39.455Z,0.30
2023-02-18T03:43:06.270Z,0.20
2023-02-18T03:45:33.151Z,0.93
2023-02-18T03:48:00.100Z,0.40
2023-02-18T03:50:27.058Z,0.30
2023-02-18T03:52:53.849Z,0.33
2023-02-18T03:55:20.695Z,0.30
2023-02-18T03:57:47.521Z,0.33
2023-02-18T04:00:16.054Z,0.20
2023-02-18T04:02:43.261Z,0.20
2023-02-18T04:05:10.704Z,0.40
2023-02-18T04:07:37.601Z,0.20
2023-02-18T04:10:06.201Z,0.20
2023-02-18T04:12:33.088Z,0.40
2023-02-18T04:14:59.929Z,0.30
2023-02-18T04:17:26.920Z,0.40
2023-02-18T04:19:53.774Z,0.20
2023-02-18T04:22:20.627Z,0.33
2023-02-18T04:24:47.453Z,0.20
2023-02-18T04:27:14.456Z,0.20
2023-02-18T04:29:41.697Z,0.30
2023-02-18T04:32:08.662Z,0.20
2023-02-18T04:34:35.764Z,0.57
2023-02-18T04:37:02.721Z,0.40
2023-02-18T04:39:29.646Z,0.20
2023-02-18T04:41:56.533Z,0.40
2023-02-18T04:44:23.544Z,0.77
2023-02-18T04:46:50.488Z,0.30
2023-02-18T04:49:19.398Z,0.20
2023-02-18T04:51:46.240Z,0.23
2023-02-18T04:54:13.215Z,0.30
2023-02-18T04:56:40.112Z,0.20
2023-02-18T04:59:06.955Z,0.37
2023-02-18T05:01:33.859Z,0.20
2023-02-18T05:04:00.719Z,0.30
2023-02-18T05:06:27.661Z,0.80
2023-02-18T05:08:54.645Z,0.20
2023-02-18T05:11:21.478Z,0.20
2023-02-18T05:13:48.292Z,0.30
2023-02-18T05:16:15.200Z,0.30
2023-02-18T05:18:42.061Z,0.20
2023-02-18T05:21:08.863Z,0.27
2023-02-18T05:23:35.690Z,0.40
2023-02-18T05:26:02.450Z,0.20
2023-02-18T05:28:29.358Z,0.20
2023-02-18T05:30:56.324Z,0.80
2023-02-18T05:33:23.284Z,0.40
2023-02-18T05:35:50.173Z,0.30
2023-02-18T05:38:17.004Z,0.20
2023-02-18T05:40:43.901Z,0.30
2023-02-18T05:43:11.285Z,0.30
2023-02-18T05:45:38.142Z,0.30
2023-02-18T05:48:05.386Z,0.53
2023-02-18T05:50:32.824Z,0.30
2023-02-18T05:52:59.680Z,0.40
2023-02-18T05:55:26.682Z,0.40
2023-02-18T05:57:53.717Z,0.20
2023-02-18T06:00:20.996Z,0.40
2023-02-18T06:02:47.930Z,0.30
2023-02-18T06:05:14.822Z,0.27
2023-02-18T06:07:41.676Z,0.30
2023-02-18T06:10:08.897Z,0.40
2023-02-18T06:12:35.728Z,0.30
2023-02-18T06:15:02.627Z,0.33
2023-02-18T06:17:29.486Z,0.27
2023-02-18T06:19:56.297Z,0.33
2023-02-18T06:22:23.204Z,0.20
2023-02-18T06:24:50.026Z,0.93
2023-02-18T06:27:16.948Z,0.23
2023-02-18T06:29:43.903Z,0.40
2023-02-18T06:32:10.873Z,0.20
2023-02-18T06:34:37.757Z,0.37
2023-02-18T06:37:04.702Z,0.50
2023-02-18T06:39:31.541Z,0.40
2023-02-18T06:41:58.526Z,0.20
2023-02-18T06:44:26.623Z,0.50
2023-02-18T06:46:53.508Z,0.33
2023-02-18T06:49:20.390Z,0.20
2023-02-18T06:51:47.183Z,0.40
2023-02-18T06:54:14.082Z,0.33
2023-02-18T06:56:41.054Z,0.30
2023-02-18T06:59:08.410Z,0.20
2023-02-18T07:01:35.477Z,0.20
2023-02-18T07:04:02.427Z,0.20
2023-02-18T07:06:29.237Z,0.30
2023-02-18T07:08:56.144Z,0.20
2023-02-18T07:11:23.026Z,0.20
2023-02-18T07:13:49.953Z,0.30
2023-02-18T07:16:16.896Z,0.30
2023-02-18T07:18:43.897Z,0.20
2023-02-18T07:21:10.797Z,0.20
2023-02-18T07:23:37.604Z,0.20
2023-02-18T07:26:12.735Z,0.30
2023-02-18T07:28:40.564Z,0.40
2023-02-18T07:31:08.146Z,0.20
2023-02-18T07:33:35.082Z,0.40
2023-02-18T07:36:03.291Z,0.50
2023-02-18T07:38:30.904Z,0.50
2023-02-18T07:40:58.505Z,0.20
2023-02-18T07:43:25.496Z,0.47
2023-02-18T07:45:52.340Z,0.20
2023-02-18T07:48:19.342Z,0.37
2023-02-18T07:50:47.102Z,0.40
2023-02-18T07:53:16.561Z,0.20
2023-02-18T07:55:49.415Z,1.03
2023-02-18T07:58:20.156Z,0.20
2023-02-18T08:00:48.125Z,0.40
2023-02-18T08:03:16.565Z,0.30
2023-02-18T08:05:43.501Z,0.20
2023-02-18T08:08:15.280Z,0.20
2023-02-18T08:10:43.076Z,0.40
2023-02-18T08:13:10.670Z,0.20
2023-02-18T08:15:38.152Z,0.27
2023-02-18T08:18:06.453Z,0.20
2023-02-18T08:20:37.612Z,0.20
2023-02-18T08:23:06.220Z,0.20
2023-02-18T08:25:33.736Z,0.20
2023-02-18T08:28:00.606Z,0.20
2023-02-18T08:30:27.756Z,0.20
2023-02-18T08:32:54.874Z,0.23
2023-02-18T08:35:22.077Z,0.50
2023-02-18T08:37:52.998Z,0.30
2023-02-18T08:40:21.822Z,0.20
2023-02-18T08:42:48.642Z,0.67
2023-02-18T08:45:15.586Z,0.20
2023-02-18T08:48:17.902Z,0.20
2023-02-18T08:50:29.208Z,1.23
2023-02-18T08:52:58.011Z,0.50
2023-02-18T08:55:25.117Z,0.20
2023-02-18T08:57:52.023Z,0.40
2023-02-18T09:00:20.549Z,0.30
2023-02-18T09:02:47.980Z,0.30
2023-02-18T09:05:14.937Z,0.30
2023-02-18T09:07:41.780Z,0.50
2023-02-18T09:10:10.631Z,0.60
2023-02-18T09:12:37.594Z,0.20
2023-02-18T09:15:05.408Z,0.20
2023-02-18T09:17:32.316Z,0.30
2023-02-18T09:19:59.283Z,0.20
2023-02-18T09:22:26.118Z,0.20
2023-02-18T09:24:52.996Z,0.20
2023-02-18T09:27:19.798Z,0.20
2023-02-18T09:29:46.661Z,0.33
2023-02-18T09:32:19.983Z,0.20
2023-02-18T09:34:52.372Z,0.23
2023-02-18T09:37:19.218Z,0.20
2023-02-18T09:39:46.162Z,0.30
2023-02-18T09:42:16.860Z,0.30
2023-02-18T09:44:50.986Z,0.40
2023-02-18T09:47:55.904Z,0.40
2023-02-18T09:50:28.967Z,0.30
2023-02-18T09:52:58.597Z,0.33
2023-02-18T09:55:36.321Z,0.33
2023-02-18T09:58:06.903Z,0.33
2023-02-18T10:00:47.491Z,0.20
2023-02-18T10:03:18.291Z,0.20
2023-02-18T10:06:32.403Z,0.37
2023-02-18T10:09:07.168Z,0.20
2023-02-18T10:11:52.358Z,0.20
2023-02-18T10:14:19.882Z,0.20
2023-02-18T10:16:48.598Z,0.20
2023-02-18T10:19:28.113Z,0.20
2023-02-18T10:21:56.026Z,0.20
2023-02-18T10:24:33.471Z,0.30
2023-02-18T10:27:01.315Z,0.20
2023-02-18T10:29:30.950Z,0.20
2023-02-18T10:32:21.820Z,0.20
2023-02-18T10:35:00.018Z,0.20
2023-02-18T10:38:04.733Z,0.20
2023-02-18T10:40:40.333Z,0.20
2023-02-18T10:43:25.645Z,0.27
2023-02-18T10:45:58.743Z,0.30
2023-02-18T10:48:31.129Z,0.30
2023-02-18T10:51:01.140Z,0.17
2023-02-18T10:53:38.516Z,0.20
2023-02-18T10:56:07.174Z,0.40
2023-02-18T10:58:36.059Z,0.20
2023-02-18T11:01:13.682Z,0.20
2023-02-18T11:03:52.405Z,0.30
2023-02-18T11:06:27.526Z,0.63
2023-02-18T11:08:56.853Z,0.23
2023-02-18T11:11:32.473Z,0.27
2023-02-18T11:14:02.157Z,0.20
2023-02-18T11:16:53.628Z,0.23
2023-02-18T11:19:40.872Z,0.47
2023-02-18T11:22:20.542Z,0.30
2023-02-18T11:24:50.896Z,0.30
2023-02-18T11:27:43.111Z,0.30
2023-02-18T11:30:36.246Z,0.20
2023-02-18T11:33:23.858Z,0.30
2023-02-18T11:35:53.761Z,0.20
2023-02-18T11:38:29.028Z,0.30
2023-02-18T11:40:58.140Z,0.30
2023-02-18T11:43:29.167Z,0.67
2023-02-18T11:46:23.603Z,0.30
2023-02-18T11:48:51.722Z,0.20
2023-02-18T11:51:46.531Z,0.30
2023-02-18T11:54:31.788Z,0.50
2023-02-18T11:57:02.999Z,0.20
2023-02-18T11:59:33.243Z,0.30
2023-02-18T12:02:00.014Z,0.40
2023-02-18T12:04:31.710Z,0.30
2023-02-18T12:07:30.268Z,0.30
2023-02-18T12:10:02.708Z,0.50
2023-02-18T12:12:44.711Z,0.33
2023-02-18T12:15:18.919Z,0.57
2023-02-18T12:18:14.963Z,0.40
2023-02-18T12:21:00.489Z,0.33
2023-02-18T12:23:39.635Z,0.43
2023-02-18T12:26:30.898Z,0.30
2023-02-18T12:29:22.051Z,0.40
2023-02-18T12:31:58.851Z,0.30
2023-02-18T12:34:40.979Z,0.50
2023-02-18T12:37:33.379Z,0.30
2023-02-18T12:40:18.487Z,0.23
2023-02-18T12:42:57.574Z,0.27
2023-02-18T12:45:54.374Z,0.50
2023-02-18T12:48:49.439Z,0.30
2023-02-18T12:51:25.671Z,0.30
2023-02-18T12:54:23.431Z,0.27
2023-02-18T12:56:59.349Z,0.40
2023-02-18T12:59:44.933Z,0.20
2023-02-18T13:02:17.694Z,0.30
2023-02-18T13:05:03.198Z,0.20
2023-02-18T13:07:53.748Z,0.20
2023-02-18T13:10:41.581Z,0.20
2023-02-18T13:13:24.514Z,0.40
2023-02-18T13:16:06.384Z,0.20
2023-02-18T13:18:40.597Z,0.30
2023-02-18T13:21:12.616Z,0.20
2023-02-18T13:24:06.293Z,0.20
2023-02-18T13:26:34.670Z,0.20
2023-02-18T13:29:30.150Z,0.20
2023-02-18T13:32:15.928Z,0.20
2023-02-18T13:35:00.302Z,0.53
2023-02-18T13:37:41.894Z,0.23
2023-02-18T13:40:26.644Z,0.30
2023-02-18T13:42:54.087Z,0.10
2023-02-18T13:45:30.196Z,0.20
2023-02-18T13:47:57.899Z,0.30
2023-02-18T13:50:25.692Z,0.30
2023-02-18T13:53:07.651Z,0.20
2023-02-18T13:55:51.013Z,0.10
2023-02-18T13:58:38.971Z,0.33
2023-02-18T14:01:13.477Z,0.10
2023-02-18T14:03:43.234Z,0.20
2023-02-18T14:06:20.284Z,0.20
2023-02-18T14:08:47.887Z,0.20
2023-02-18T14:11:14.716Z,0.10
2023-02-18T14:13:52.586Z,0.30
2023-02-18T14:16:20.335Z,0.60
2023-02-18T14:18:47.104Z,0.20
2023-02-18T14:21:13.988Z,0.20
2023-02-18T14:23:57.449Z,0.70
2023-02-18T14:26:45.898Z,0.30
2023-02-18T14:29:28.000Z,0.20
2023-02-18T14:32:01.814Z,0.50
2023-02-18T14:34:41.864Z,0.20
2023-02-18T14:37:26.575Z,0.20
2023-02-18T14:40:35.177Z,0.20
2023-02-18T14:43:08.639Z,0.20
2023-02-18T14:45:53.853Z,0.20
2023-02-18T14:48:38.597Z,0.30
2023-02-18T14:51:06.406Z,0.20
2023-02-18T14:53:45.185Z,0.20
2023-02-18T14:56:18.006Z,0.20
2023-02-18T14:58:56.816Z,0.23
2023-02-18T15:01:30.414Z,0.20
2023-02-18T15:03:58.065Z,0.30
2023-02-18T15:06:36.744Z,0.30
2023-02-18T15:09:23.807Z,0.20
2023-02-18T15:12:04.665Z,0.20
2023-02-18T15:14:38.596Z,0.50
2023-02-18T15:17:11.147Z,0.20
2023-02-18T15:19:42.015Z,1.47
2023-02-18T15:22:18.036Z,3.13
2023-02-18T15:24:45.414Z,2.50
2023-02-18T15:27:13.719Z,3.17
2023-02-18T15:29:40.847Z,3.07
2023-02-18T15:32:24.056Z,3.43
2023-02-18T15:34:53.440Z,3.27
2023-02-18T15:37:20.409Z,4.33
2023-02-18T15:39:48.009Z,4.10
2023-02-18T15:42:28.800Z,3.20
2023-02-18T15:45:26.164Z,4.00
2023-02-18T15:47:57.525Z,3.33
2023-02-18T15:50:30.768Z,4.00
2023-02-18T15:53:04.001Z,4.53
2023-02-18T15:55:34.209Z,4.77
2023-02-18T15:58:04.020Z,5.53
2023-02-18T16:00:34.600Z,4.50
2023-02-18T16:03:13.518Z,4.80
2023-02-18T16:05:42.759Z,3.73
2023-02-18T16:08:22.928Z,4.47
2023-02-18T16:11:11.993Z,3.47
2023-02-18T16:13:47.202Z,5.87
2023-02-18T16:16:30.179Z,4.50
2023-02-18T16:18:57.078Z,3.40
2023-02-18T16:21:26.700Z,4.23
2023-02-18T16:23:59.583Z,3.60
2023-02-18T16:26:38.657Z,4.13
2023-02-18T16:29:21.608Z,3.80
2023-02-18T16:31:48.757Z,5.17
2023-02-18T16:34:17.337Z,4.30
2023-02-18T16:37:03.964Z,5.10
2023-02-18T16:39:34.005Z,4.93
2023-02-18T16:42:01.014Z,3.50
2023-02-18T16:44:27.904Z,5.33
2023-02-18T16:46:54.703Z,4.33
2023-02-18T16:49:21.559Z,5.30
2023-02-18T16:51:49.246Z,3.20
2023-02-18T16:54:16.516Z,5.57
2023-02-18T16:56:43.342Z,4.47
2023-02-18T16:59:10.173Z,5.33
2023-02-18T17:01:44.977Z,4.20
2023-02-18T17:04:15.444Z,3.43
2023-02-18T17:06:44.985Z,4.93
2023-02-18T17:09:22.263Z,6.73
2023-02-18T17:11:55.125Z,5.47
2023-02-18T17:14:23.170Z,5.03
2023-02-18T17:16:53.182Z,4.33
2023-02-18T17:19:20.570Z,4.13
2023-02-18T17:21:49.112Z,6.23
2023-02-18T17:24:18.287Z,6.77
2023-02-18T17:26:45.449Z,5.20
2023-02-18T17:29:12.483Z,5.27
2023-02-18T17:31:44.611Z,5.17
2023-02-18T17:34:25.806Z,3.10
2023-02-18T17:36:52.702Z,3.60
2023-02-18T17:39:21.046Z,5.03
2023-02-18T17:41:48.161Z,7.47
2023-02-18T17:44:17.823Z,4.90
2023-02-18T17:46:45.104Z,4.13
2023-02-18T17:49:12.236Z,4.93
2023-02-18T17:51:39.372Z,5.40
2023-02-18T17:54:18.020Z,3.70
2023-02-18T17:56:45.840Z,5.83
2023-02-18T17:59:13.162Z,5.00
2023-02-18T18:01:40.479Z,5.23
2023-02-18T18:04:14.423Z,7.27
2023-02-18T18:06:41.703Z,5.23
2023-02-18T18:09:08.524Z,4.03
2023-02-18T18:11:35.933Z,3.53
2023-02-18T18:14:02.867Z,4.00
2023-02-18T18:16:29.814Z,6.30
2023-02-18T18:18:56.784Z,4.40
2023-02-18T18:21:35.619Z,5.27
2023-02-18T18:24:02.489Z,4.63
2023-02-18T18:26:30.034Z,5.23
2023-02-18T18:28:56.873Z,4.47
2023-02-18T18:31:23.995Z,4.97
2023-02-18T18:33:53.341Z,4.80
2023-02-18T18:36:22.037Z,3.70
2023-02-18T18:38:49.332Z,4.83
2023-02-18T18:41:18.982Z,5.13
2023-02-18T18:43:45.898Z,4.40
2023-02-18T18:46:12.944Z,4.53
2023-02-18T18:48:39.822Z,3.50
2023-02-18T18:51:07.026Z,3.93
2023-02-18T18:53:35.369Z,3.80
2023-02-18T18:56:05.334Z,4.00
2023-02-18T18:58:32.743Z,7.13
2023-02-18T19:01:02.227Z,4.03
2023-02-18T19:03:30.473Z,5.33
2023-02-18T19:05:57.987Z,4.97
2023-02-18T19:08:25.542Z,5.63
2023-02-18T19:10:57.288Z,4.73
2023-02-18T19:13:29.478Z,4.07
2023-02-18T19:16:09.005Z,4.77
2023-02-18T19:18:35.876Z,5.07
2023-02-18T19:21:03.677Z,6.40
2023-02-18T19:23:31.258Z,4.07
2023-02-18T19:25:59.248Z,5.43
2023-02-18T19:28:26.948Z,6.40
2023-02-18T19:30:53.801Z,2.83
2023-02-18T19:33:20.666Z,5.90
2023-02-18T19:35:47.508Z,5.83
2023-02-18T19:38:17.730Z,8.37
2023-02-18T19:40:46.067Z,5.80
2023-02-18T19:43:13.304Z,5.20
2023-02-18T19:45:45.271Z,5.53
2023-02-18T19:48:14.067Z,6.40
2023-02-18T19:50:42.205Z,4.97
2023-02-18T19:53:09.717Z,5.20
2023-02-18T19:55:36.685Z,4.60
2023-02-18T19:58:03.687Z,5.07
2023-02-18T20:00:30.608Z,3.20
2023-02-18T20:02:57.728Z,4.17
2023-02-18T20:05:24.632Z,2.03
2023-02-18T20:07:51.549Z,2.10
2023-02-18T20:10:22.584Z,4.77
2023-02-18T20:12:53.865Z,3.53
2023-02-18T20:15:21.756Z,3.43
2023-02-18T20:17:49.202Z,3.53
2023-02-18T20:20:16.278Z,3.60
2023-02-18T20:22:43.148Z,2.53
2023-02-18T20:25:10.135Z,5.17
2023-02-18T20:27:41.233Z,3.80
2023-02-18T20:30:15.029Z,4.40
2023-02-18T20:32:41.960Z,4.47
2023-02-18T20:35:09.137Z,4.17
2023-02-18T20:37:36.436Z,3.77
2023-02-18T20:40:03.395Z,3.40
2023-02-18T20:42:30.288Z,4.47
2023-02-18T20:44:57.167Z,3.20
2023-02-18T20:47:24.005Z,4.63
2023-02-18T20:49:50.828Z,3.43
2023-02-18T20:52:17.685Z,4.70
2023-02-18T20:54:44.620Z,4.73
2023-02-18T20:57:11.421Z,4.07
2023-02-18T20:59:38.329Z,4.10
2023-02-18T21:02:05.349Z,3.07
2023-02-18T21:04:32.466Z,2.43
2023-02-18T21:06:59.292Z,3.07
2023-02-18T21:09:26.203Z,5.00
2023-02-18T21:11:53.048Z,4.33
2023-02-18T21:14:20.058Z,3.70
2023-02-18T21:16:47.059Z,4.73
2023-02-18T21:19:16.890Z,3.53
2023-02-18T21:21:47.780Z,4.13
2023-02-18T21:24:16.099Z,3.50
2023-02-18T21:26:42.983Z,4.93
2023-02-18T21:29:09.940Z,3.00
2023-02-18T21:31:39.812Z,5.20
2023-02-18T21:34:07.894Z,4.20
2023-02-18T21:36:34.998Z,4.27
2023-02-18T21:39:04.377Z,2.23
2023-02-18T21:41:33.020Z,3.07
2023-02-18T21:44:00.155Z,3.63
2023-02-18T21:46:32.270Z,3.77
2023-02-18T21:49:02.755Z,2.00
2023-02-18T21:51:50.247Z,1.10
2023-02-18T21:54:31.818Z,0.97
2023-02-18T21:57:00.739Z,0.90
2023-02-18T21:59:29.926Z,1.67
2023-02-18T22:02:00.306Z,1.33
2023-02-18T22:04:33.161Z,0.40
2023-02-18T22:07:00.114Z,0.33
2023-02-18T22:09:27.283Z,1.33
2023-02-18T22:11:54.278Z,0.50
2023-02-18T22:14:21.467Z,0.90
2023-02-18T22:16:48.587Z,0.40
2023-02-18T22:19:15.678Z,1.13
2023-02-18T22:21:43.082Z,0.53
2023-02-18T22:24:11.220Z,0.53
2023-02-18T22:26:38.213Z,0.77
2023-02-18T22:29:05.367Z,0.67
2023-02-18T22:31:32.874Z,0.50
2023-02-18T22:34:00.585Z,0.43
2023-02-18T22:36:29.276Z,0.60
2023-02-18T22:38:57.117Z,0.63
2023-02-18T22:41:26.000Z,0.60
2023-02-18T22:43:57.053Z,0.73
2023-02-18T22:46:24.290Z,0.50
2023-02-18T22:48:51.248Z,0.23
2023-02-18T22:51:25.045Z,1.00
2023-02-18T22:53:53.698Z,0.27
2023-02-18T22:56:21.935Z,0.50
2023-02-18T22:58:49.933Z,0.43
2023-02-18T23:01:20.982Z,0.37
2023-02-18T23:03:48.129Z,0.20
2023-02-18T23:06:15.003Z,0.60
2023-02-18T23:08:42.104Z,0.30
2023-02-18T23:11:13.111Z,0.60
2023-02-18T23:13:41.022Z,1.03
2023-02-18T23:16:14.312Z,0.40
2023-02-18T23:18:41.553Z,0.83
2023-02-18T23:21:17.887Z,0.50
2023-02-18T23:23:46.106Z,0.70
2023-02-18T23:26:14.314Z,0.60
2023-02-18T23:28:50.380Z,0.40
2023-02-18T23:31:26.100Z,0.30
2023-02-18T23:33:57.910Z,0.23
2023-02-18T23:36:27.809Z,0.83
2023-02-18T23:39:00.369Z,0.40
2023-02-18T23:41:29.148Z,0.60
2023-02-18T23:43:57.194Z,0.33
2023-02-18T23:46:26.750Z,0.30
2023-02-18T23:48:53.640Z,0.37
2023-02-18T23:51:23.377Z,0.50
2023-02-18T23:53:50.639Z,0.57
2023-02-18T23:56:22.899Z,0.30
2023-02-18T23:58:55.009Z,0.60
